Time;durP1;ratioP1;P1;durP2;ratioP2;P2;SDS_P1;SDS_P2;PMS_P1;PMS_P2;Temp;Humidity;BMP_temperature;BMP_pressure;BME280_temperature;BME280_humidity;BME280_pressure;Samples;Min_cycle;Max_cycle;Signal;HPM_P1;HPM_P2
2022/07/20 00:02:25;;;;;;;4.85;3.78;;;20.10;27.20;;;;;;5052060;28;20044;-62
2022/07/20 00:04:51;;;;;;;5.57;3.85;;;20.10;27.40;;;;;;5070800;28;20025;-63
2022/07/20 00:07:17;;;;;;;7.53;3.30;;;20.10;28.00;;;;;;5050769;28;20505;-62
2022/07/20 00:12:28;;;;;;;4.47;3.42;;;20.00;29.30;;;;;;5034576;28;20035;-62
2022/07/20 00:14:53;;;;;;;4.30;3.15;;;20.10;28.40;;;;;;5067222;28;20104;-63
2022/07/20 00:17:19;;;;;;;5.32;4.07;;;20.00;28.40;;;;;;5050476;28;20475;-62
2022/07/20 00:19:44;;;;;;;3.40;3.08;;;20.00;29.30;;;;;;5070637;28;20020;-62
2022/07/20 00:22:10;;;;;;;5.38;3.60;;;20.00;29.20;;;;;;5048975;28;20508;-62
2022/07/20 00:24:36;;;;;;;5.25;3.78;;;19.90;29.50;;;;;;5070203;28;20486;-63
2022/07/20 00:27:02;;;;;;;5.75;3.67;;;19.90;29.80;;;;;;5050572;28;20052;-63
2022/07/20 00:29:27;;;;;;;4.20;3.13;;;19.90;30.00;;;;;;5048610;28;20533;-63
2022/07/20 00:31:53;;;;;;;3.50;3.05;;;19.80;30.00;;;;;;5069322;28;20099;-63
2022/07/20 00:34:19;;;;;;;5.45;3.35;;;19.70;30.40;;;;;;5048642;28;20085;-62
2022/07/20 00:36:44;;;;;;;4.28;3.47;;;19.70;30.80;;;;;;5068865;28;20279;-63
2022/07/20 00:39:09;;;;;;;4.75;3.20;;;19.70;31.20;;;;;;5048482;28;20461;-62
2022/07/20 00:41:35;;;;;;;4.60;3.50;;;19.60;31.50;;;;;;5069066;28;20028;-62
2022/07/20 00:44:05;;;;;;;5.47;3.72;;;19.50;32.70;;;;;;5047228;28;20155;-62
2022/07/20 00:46:33;;;;;;;4.57;3.38;;;19.50;33.30;;;;;;5029831;28;20037;-62
2022/07/20 00:48:59;;;;;;;5.82;3.58;;;19.40;34.30;;;;;;5051477;28;20417;-63
2022/07/20 00:51:25;;;;;;;5.53;3.38;;;19.30;34.50;;;;;;5068911;28;20020;-62
2022/07/20 00:53:51;;;;;;;7.00;3.80;;;19.30;35.60;;;;;;5048473;28;20040;-63
2022/07/20 00:56:18;;;;;;;3.85;3.45;;;19.20;36.10;;;;;;5068863;28;20097;-63
2022/07/20 00:58:44;;;;;;;3.40;2.95;;;19.20;36.50;;;;;;5048108;28;20482;-63
2022/07/20 01:01:10;;;;;;;6.95;3.83;;;19.20;37.10;;;;;;5068734;28;20032;-62
2022/07/20 01:03:37;;;;;;;4.53;3.90;;;19.10;38.00;;;;;;5058882;28;20055;-62
2022/07/20 01:06:02;;;;;;;5.25;4.07;;;19.10;38.00;;;;;;5049842;28;20029;-63
2022/07/20 01:08:29;;;;;;;5.65;3.67;;;19.10;38.70;;;;;;5066789;28;20077;-62
2022/07/20 01:10:56;;;;;;;4.97;3.47;;;19.10;39.20;;;;;;5049719;28;20108;-62
2022/07/20 01:13:22;;;;;;;8.25;3.92;;;19.10;38.90;;;;;;5060635;28;20488;-62
2022/07/20 01:15:47;;;;;;;6.65;4.13;;;19.10;39.30;;;;;;5049627;28;20124;-62
2022/07/20 01:18:13;;;;;;;4.35;3.50;;;19.10;40.20;;;;;;5066352;28;20059;-62
2022/07/20 01:20:46;;;;;;;7.13;4.47;;;19.10;39.70;;;;;;5069061;28;20024;-62
2022/07/20 01:23:16;;;;;;;6.00;3.83;;;19.10;40.30;;;;;;5054017;28;20060;-62
2022/07/20 01:25:42;;;;;;;6.90;4.63;;;19.00;40.70;;;;;;5068885;28;20503;-62
2022/07/20 01:28:09;;;;;;;6.63;4.07;;;19.10;40.50;;;;;;5053772;28;20186;-63
2022/07/20 01:30:35;;;;;;;7.35;4.03;;;19.00;41.20;;;;;;5068923;28;20035;-63
2022/07/20 01:33:00;;;;;;;6.20;3.47;;;19.10;40.50;;;;;;5052828;28;20381;-62
2022/07/20 01:35:26;;;;;;;6.75;4.13;;;19.00;41.00;;;;;;5068614;28;20047;-63
2022/07/20 01:37:52;;;;;;;6.88;4.57;;;19.00;41.80;;;;;;5051238;28;20024;-62
2022/07/20 01:40:17;;;;;;;7.20;4.30;;;19.00;41.70;;;;;;5068610;28;20028;-62
2022/07/20 01:42:43;;;;;;;6.90;3.70;;;19.10;41.50;;;;;;5049712;28;20036;-63
2022/07/20 01:45:09;;;;;;;5.57;3.72;;;19.10;40.70;;;;;;5068606;28;20028;-62
2022/07/20 01:47:34;;;;;;;7.95;4.40;;;19.20;42.10;;;;;;5050774;28;20040;-62
2022/07/20 01:50:00;;;;;;;7.22;4.88;;;19.30;42.50;;;;;;5048842;28;20498;-62
2022/07/20 01:52:25;;;;;;;6.78;4.45;;;19.30;40.50;;;;;;5067623;28;20074;-62
2022/07/20 01:54:51;;;;;;;6.85;4.50;;;19.40;40.60;;;;;;5066449;28;20035;-63
2022/07/20 01:57:17;;;;;;;5.35;4.72;;;19.40;39.90;;;;;;5049146;28;20029;-62
2022/07/20 01:59:42;;;;;;;5.82;4.10;;;19.40;40.50;;;;;;5047311;28;20024;-63
2022/07/20 02:02:08;;;;;;;6.30;4.18;;;19.40;39.70;;;;;;5067651;28;20180;-62
2022/07/20 02:04:33;;;;;;;6.85;4.25;;;19.30;40.70;;;;;;5046971;28;20029;-62
2022/07/20 02:06:59;;;;;;;5.35;3.67;;;19.20;41.30;;;;;;5067556;28;20032;-63
2022/07/20 02:09:24;;;;;;;6.15;3.88;;;19.10;41.70;;;;;;5046875;28;20512;-62
2022/07/20 02:11:50;;;;;;;7.03;3.95;;;19.00;42.30;;;;;;5067537;28;20021;-62
2022/07/20 02:14:16;;;;;;;6.18;3.58;;;19.00;42.90;;;;;;5051500;28;20115;-62
2022/07/20 02:16:41;;;;;;;5.18;4.28;;;18.90;43.30;;;;;;5048523;28;20261;-62
2022/07/20 02:19:07;;;;;;;5.30;3.90;;;18.90;44.10;;;;;;5052561;28;20029;-63
2022/07/20 02:21:33;;;;;;;6.38;4.03;;;18.80;45.20;;;;;;5067438;28;20131;-63
2022/07/20 02:23:58;;;;;;;8.13;4.45;;;18.70;45.60;;;;;;5046878;28;20114;-62
2022/07/20 02:26:24;;;;;;;5.10;4.18;;;18.70;45.30;;;;;;5067607;28;20484;-62
2022/07/20 02:28:50;;;;;;;8.25;5.55;;;18.70;45.50;;;;;;5057062;28;20488;-62
2022/07/20 02:31:18;;;;;;;6.57;4.53;;;18.70;45.80;;;;;;5048460;28;20036;-62
2022/07/20 02:33:44;;;;;;;6.97;4.47;;;18.70;45.90;;;;;;5065781;28;20227;-55
2022/07/20 02:36:10;;;;;;;7.90;3.47;;;18.70;45.90;;;;;;5048363;28;20352;-50
2022/07/20 02:38:36;;;;;;;8.15;4.13;;;18.70;46.30;;;;;;5065377;28;20145;-64
2022/07/20 02:41:01;;;;;;;7.75;4.35;;;18.60;47.40;;;;;;5048346;28;20115;-64
2022/07/20 02:43:27;;;;;;;6.38;4.03;;;18.50;48.00;;;;;;5065546;28;20419;-64
2022/07/20 02:45:53;;;;;;;5.13;3.80;;;18.50;47.70;;;;;;5067974;28;20511;-64
2022/07/20 02:48:18;;;;;;;9.43;6.10;;;18.40;49.80;;;;;;5051947;28;20043;-64
2022/07/20 02:50:44;;;;;;;6.70;4.38;;;18.40;50.80;;;;;;5067878;28;20025;-64
2022/07/20 02:53:11;;;;;;;8.23;4.97;;;18.40;50.60;;;;;;5050547;28;20021;-64
2022/07/20 02:55:38;;;;;;;5.10;4.25;;;18.40;49.90;;;;;;5067789;28;20546;-64
2022/07/20 02:58:04;;;;;;;7.50;4.57;;;18.50;49.70;;;;;;5050349;28;20025;-65
2022/07/20 03:00:30;;;;;;;7.15;4.63;;;18.50;49.20;;;;;;5071916;28;20035;-64
2022/07/20 03:02:55;;;;;;;7.55;4.68;;;18.50;50.40;;;;;;5052260;28;20021;-64
2022/07/20 03:05:21;;;;;;;7.95;4.60;;;18.50;49.90;;;;;;5071898;28;20047;-64
2022/07/20 03:07:47;;;;;;;7.95;4.63;;;18.50;50.10;;;;;;5050854;28;20025;-64
2022/07/20 03:10:12;;;;;;;6.55;5.03;;;18.50;52.70;;;;;;5071668;28;20035;-65
2022/07/20 03:12:38;;;;;;;8.52;4.63;;;18.50;49.50;;;;;;5052005;28;20520;-65
2022/07/20 03:15:05;;;;;;;8.68;5.05;;;18.50;50.30;;;;;;5046389;28;20082;-65
2022/07/20 03:17:31;;;;;;;10.77;5.30;;;18.50;50.60;;;;;;5071075;28;20028;-64
2022/07/20 03:19:56;;;;;;;6.80;4.25;;;18.50;50.90;;;;;;5050247;28;20263;-65
2022/07/20 03:22:22;;;;;;;6.13;4.50;;;18.40;50.70;;;;;;5070950;28;20133;-65
2022/07/20 03:24:48;;;;;;;8.70;4.75;;;18.40;52.00;;;;;;5050116;28;20037;-65
2022/07/20 03:27:13;;;;;;;6.97;4.72;;;18.40;51.60;;;;;;5070586;28;20032;-64
2022/07/20 03:29:39;;;;;;;8.80;5.43;;;18.40;51.80;;;;;;5050131;28;20033;-64
2022/07/20 03:32:05;;;;;;;5.82;4.45;;;18.40;52.40;;;;;;5070511;28;20500;-65
2022/07/20 03:34:31;;;;;;;6.22;4.53;;;18.50;50.80;;;;;;5049860;28;20021;-64
2022/07/20 03:36:56;;;;;;;6.55;4.10;;;18.60;50.60;;;;;;5070437;28;20040;-65
2022/07/20 03:39:22;;;;;;;7.50;4.25;;;18.60;50.60;;;;;;5049735;28;20083;-64
2022/07/20 03:41:47;;;;;;;7.82;4.28;;;18.60;51.70;;;;;;5070300;28;20033;-65
2022/07/20 03:44:13;;;;;;;6.18;4.07;;;18.60;51.50;;;;;;5049810;28;20033;-64
2022/07/20 03:46:39;;;;;;;6.60;4.88;;;18.60;50.90;;;;;;5070295;28;20037;-64
2022/07/20 03:49:04;;;;;;;5.70;3.70;;;18.70;50.70;;;;;;5059993;28;20115;-64
2022/07/20 03:51:30;;;;;;;6.75;4.03;;;18.70;52.20;;;;;;5051401;28;20032;-64
2022/07/20 03:53:55;;;;;;;6.88;4.57;;;18.80;51.70;;;;;;5068194;28;20044;-65
2022/07/20 03:56:21;;;;;;;6.68;3.80;;;18.80;51.10;;;;;;5051301;28;20067;-64
2022/07/20 03:58:46;;;;;;;6.55;3.97;;;18.90;50.50;;;;;;5068386;28;20021;-65
2022/07/20 04:01:12;;;;;;;6.80;4.68;;;19.20;49.50;;;;;;5070797;28;20029;-64
2022/07/20 04:03:37;;;;;;;7.22;4.32;;;19.60;48.50;;;;;;5055303;28;20028;-65
2022/07/20 04:06:03;;;;;;;6.78;3.83;;;20.00;47.20;;;;;;5070787;28;20401;-65
2022/07/20 04:08:29;;;;;;;4.70;3.70;;;20.40;45.90;;;;;;5053859;28;20435;-65
2022/07/20 04:10:54;;;;;;;4.88;4.03;;;20.80;44.50;;;;;;5070016;28;20037;-65
2022/07/20 04:13:20;;;;;;;5.43;4.38;;;21.20;43.20;;;;;;5046280;28;20024;-64
2022/07/20 04:15:45;;;;;;;8.75;4.40;;;21.50;42.20;;;;;;5070532;28;20033;-65
2022/07/20 04:18:11;;;;;;;7.38;4.10;;;21.90;41.10;;;;;;5050968;28;20508;-65
2022/07/20 04:20:36;;;;;;;5.00;4.15;;;22.20;39.90;;;;;;5070451;28;20048;-65
2022/07/20 04:23:02;;;;;;;4.78;4.03;;;22.60;38.50;;;;;;5049465;28;20040;-65
2022/07/20 04:25:27;;;;;;;6.25;3.88;;;22.90;37.10;;;;;;5070545;28;20031;-65
2022/07/20 04:27:53;;;;;;;5.78;3.80;;;23.30;36.20;;;;;;5050921;28;20507;-65
2022/07/20 04:30:19;;;;;;;5.65;4.25;;;23.70;35.00;;;;;;5048426;28;20029;-64
2022/07/20 04:32:44;;;;;;;5.38;4.05;;;24.10;33.60;;;;;;5069619;28;20033;-65
2022/07/20 04:35:10;;;;;;;4.85;4.25;;;24.50;32.40;;;;;;5048960;28;20481;-63
2022/07/20 04:37:37;;;;;;;7.93;3.92;;;24.90;31.10;;;;;;5069972;28;20037;-64
2022/07/20 04:40:04;;;;;;;4.53;3.97;;;25.20;29.90;;;;;;5048720;28;20036;-65
2022/07/20 04:42:30;;;;;;;5.40;4.25;;;25.50;29.20;;;;;;5069314;28;20064;-65
2022/07/20 04:44:55;;;;;;;5.18;4.10;;;25.70;28.00;;;;;;5048598;28;20194;-63
2022/07/20 04:47:20;;;;;;;5.20;4.28;;;26.00;27.10;;;;;;5064845;28;20294;-63
2022/07/20 04:49:46;;;;;;;8.60;4.63;;;26.40;26.50;;;;;;5062424;28;20507;-63
2022/07/20 04:52:11;;;;;;;4.05;3.65;;;26.70;26.10;;;;;;5050286;28;20049;-63
2022/07/20 04:54:37;;;;;;;8.38;4.43;;;27.00;25.80;;;;;;5054422;28;20027;-65
2022/07/20 04:57:02;;;;;;;7.88;4.22;;;27.30;24.30;;;;;;5069078;28;20037;-65
2022/07/20 04:59:28;;;;;;;5.30;4.75;;;27.60;22.30;;;;;;5048519;28;20579;-65
2022/07/20 05:01:54;;;;;;;5.55;4.35;;;27.90;20.40;;;;;;5069079;28;20035;-65
2022/07/20 05:04:19;;;;;;;5.57;4.60;;;28.10;18.40;;;;;;5056959;28;20038;-62
2022/07/20 05:06:45;;;;;;;5.63;4.57;;;28.40;17.00;;;;;;5050147;28;20040;-65
2022/07/20 05:09:11;;;;;;;5.78;4.68;;;28.80;16.50;;;;;;5066800;28;20214;-63
2022/07/20 05:11:38;;;;;;;6.97;4.88;;;29.10;14.80;;;;;;5050113;28;20340;-64
2022/07/20 05:14:04;;;;;;;7.38;5.70;;;29.30;12.70;;;;;;5050080;28;20098;-63
2022/07/20 05:16:30;;;;;;;6.47;5.07;;;29.40;11.70;;;;;;5068487;28;20073;-63
2022/07/20 05:18:55;;;;;;;7.75;4.68;;;29.70;11.60;;;;;;5052912;28;20119;-64
2022/07/20 05:21:21;;;;;;;5.20;4.47;;;30.20;10.70;;;;;;5068400;28;20504;-64
2022/07/20 05:23:47;;;;;;;5.45;4.43;;;30.60;9.80;;;;;;5052774;28;20186;-64
2022/07/20 05:26:12;;;;;;;6.65;4.82;;;30.80;7.60;;;;;;5069096;28;20051;-63
2022/07/20 05:28:41;;;;;;;7.43;5.30;;;31.00;4.10;;;;;;5051341;28;20016;-63
2022/07/20 05:31:08;;;;;;;5.63;4.85;;;31.20;6.60;;;;;;5067722;28;20392;-64
2022/07/20 05:33:34;;;;;;;10.00;5.00;;;31.40;6.10;;;;;;5048961;28;20028;-62
2022/07/20 05:36:02;;;;;;;6.88;5.50;;;31.70;1.70;;;;;;5068985;28;20108;-63
2022/07/20 05:38:28;;;;;;;7.07;5.40;;;31.80;4.00;;;;;;5048942;28;20023;-63
2022/07/20 05:40:54;;;;;;;7.30;4.82;;;32.00;3.60;;;;;;5068735;28;20400;-63
2022/07/20 05:43:20;;;;;;;9.52;4.93;;;32.50;3.20;;;;;;5048063;28;20036;-63
2022/07/20 05:45:45;;;;;;;7.13;4.38;;;33.20;2.50;;;;;;5068824;28;20031;-63
2022/07/20 05:48:11;;;;;;;5.53;4.45;;;33.60;1.80;;;;;;5059905;28;20527;-63
2022/07/20 05:50:38;;;;;;;5.20;4.68;;;34.00;1.20;;;;;;5066773;28;20109;-63
2022/07/20 05:53:05;;;;;;;5.40;3.85;;;34.50;1.00;;;;;;5048991;28;20036;-63
2022/07/20 05:55:31;;;;;;;6.88;5.03;;;34.90;1.00;;;;;;5047540;28;20033;-63
2022/07/20 05:57:56;;;;;;;5.68;4.40;;;35.10;1.00;;;;;;5067920;28;20115;-63
2022/07/20 06:00:22;;;;;;;5.80;4.95;;;35.50;1.00;;;;;;5047130;28;20107;-63
2022/07/20 06:02:47;;;;;;;5.20;4.43;;;35.90;1.00;;;;;;5067722;28;20028;-63
2022/07/20 06:05:13;;;;;;;6.93;5.03;;;36.10;1.00;;;;;;5047211;28;20483;-63
2022/07/20 06:07:38;;;;;;;6.38;4.28;;;36.60;1.00;;;;;;5067647;28;20036;-63
2022/07/20 06:10:04;;;;;;;5.30;4.80;;;36.80;1.00;;;;;;5047079;28;20041;-63
2022/07/20 06:12:30;;;;;;;9.05;5.03;;;36.20;1.00;;;;;;5067648;28;20404;-63
2022/07/20 06:14:55;;;;;;;5.93;4.97;;;35.90;1.00;;;;;;5040586;28;20032;-63
2022/07/20 06:17:21;;;;;;;7.90;5.47;;;36.30;1.00;;;;;;5067417;28;20168;-63
2022/07/20 06:19:46;;;;;;;7.15;5.13;;;36.30;1.00;;;;;;5047191;28;20164;-63
2022/07/20 06:22:12;;;;;;;6.93;5.22;;;36.50;1.00;;;;;;5067324;28;20039;-63
2022/07/20 06:24:37;;;;;;;5.20;4.38;;;37.00;1.00;;;;;;5057011;28;20024;-63
2022/07/20 06:27:03;;;;;;;7.15;4.90;;;37.40;1.00;;;;;;5048708;28;20033;-65
2022/07/20 06:29:28;;;;;;;6.68;4.30;;;37.60;1.00;;;;;;5065379;28;20029;-64
2022/07/20 06:31:54;;;;;;;7.18;4.93;;;38.10;1.00;;;;;;5048702;28;20048;-64
2022/07/20 06:34:19;;;;;;;5.20;4.70;;;38.10;1.00;;;;;;5065341;28;20464;-64
2022/07/20 06:36:46;;;;;;;8.32;4.90;;;38.60;1.00;;;;;;5068259;28;20497;-64
2022/07/20 06:39:12;;;;;;;8.13;4.18;;;39.30;1.00;;;;;;5052886;28;20109;-62
2022/07/20 06:41:37;;;;;;;8.35;4.63;;;39.60;1.00;;;;;;5067992;28;20017;-63
2022/07/20 06:44:03;;;;;;;9.05;5.00;;;40.10;1.00;;;;;;5051583;28;20116;-63
2022/07/20 06:46:28;;;;;;;4.55;4.15;;;40.60;1.00;;;;;;5067927;28;20020;-63
2022/07/20 06:48:54;;;;;;;4.25;3.83;;;40.70;1.00;;;;;;5049940;28;20155;-63
2022/07/20 06:51:19;;;;;;;5.05;3.83;;;41.40;1.00;;;;;;5067989;28;20029;-64
2022/07/20 06:53:45;;;;;;;4.28;3.85;;;41.90;1.00;;;;;;5047462;28;20226;-63
2022/07/20 06:56:10;;;;;;;4.65;4.15;;;42.30;1.00;;;;;;5067784;28;20089;-63
2022/07/20 06:58:36;;;;;;;6.90;4.35;;;42.70;1.00;;;;;;5047320;28;20077;-63
2022/07/20 07:01:01;;;;;;;8.82;4.55;;;42.90;1.00;;;;;;5067854;28;20450;-64
2022/07/20 07:03:27;;;;;;;6.70;4.25;;;42.90;1.00;;;;;;5048646;28;20429;-63
2022/07/20 07:05:52;;;;;;;6.05;4.53;;;42.90;1.00;;;;;;5065454;28;20037;-63
2022/07/20 07:08:18;;;;;;;6.45;3.80;;;43.20;1.00;;;;;;5048105;28;20040;-63
2022/07/20 07:10:43;;;;;;;5.18;3.70;;;43.70;1.00;;;;;;5047082;28;20037;-63
2022/07/20 07:13:08;;;;;;;4.78;4.13;;;44.00;1.00;;;;;;5058625;28;20025;-62
2022/07/20 07:15:34;;;;;;;9.70;4.32;;;44.20;1.00;;;;;;5045641;28;20033;-63
2022/07/20 07:17:59;;;;;;;6.10;3.63;;;44.10;1.00;;;;;;5066871;28;20105;-63
2022/07/20 07:20:25;;;;;;;6.15;3.97;;;43.80;1.00;;;;;;5046276;28;20521;-63
2022/07/20 07:22:50;;;;;;;4.55;3.67;;;44.10;1.00;;;;;;5066801;28;20075;-63
2022/07/20 07:25:16;;;;;;;6.63;4.13;;;43.70;1.00;;;;;;5046357;28;20116;-64
2022/07/20 07:27:41;;;;;;;5.45;4.25;;;43.00;1.00;;;;;;5066713;28;20025;-64
2022/07/20 07:30:07;;;;;;;9.02;4.25;;;43.60;1.00;;;;;;5045342;28;20526;-64
2022/07/20 07:32:33;;;;;;;10.38;3.45;;;44.00;1.00;;;;;;5066713;28;20040;-64
2022/07/20 07:34:58;;;;;;;4.03;3.60;;;44.40;1.00;;;;;;5046192;28;20104;-64
2022/07/20 07:37:24;;;;;;;5.93;3.60;;;44.60;1.00;;;;;;5066521;28;20397;-64
2022/07/20 07:39:49;;;;;;;5.57;3.67;;;44.20;1.00;;;;;;5055916;28;20387;-64
2022/07/20 07:42:15;;;;;;;3.90;3.45;;;44.30;1.00;;;;;;5047881;28;20165;-63
2022/07/20 07:44:40;;;;;;;5.35;3.50;;;44.10;1.00;;;;;;5065223;28;20107;-64
2022/07/20 07:47:06;;;;;;;5.75;3.42;;;43.90;1.00;;;;;;5053136;28;20116;-64
2022/07/20 07:49:31;;;;;;;3.42;3.13;;;44.00;1.00;;;;;;5069019;28;20047;-64
2022/07/20 07:51:57;;;;;;;4.32;3.60;;;44.50;1.00;;;;;;5071167;28;20034;-64
2022/07/20 07:54:23;;;;;;;4.68;3.78;;;44.40;1.00;;;;;;5053681;28;20507;-64
2022/07/20 07:56:49;;;;;;;4.55;3.70;;;44.40;1.00;;;;;;5070789;28;20472;-64
2022/07/20 07:59:14;;;;;;;3.95;3.45;;;44.40;1.00;;;;;;5052687;28;20016;-64
2022/07/20 08:01:40;;;;;;;4.43;3.50;;;44.70;1.00;;;;;;5070657;28;20031;-64
2022/07/20 08:04:05;;;;;;;5.97;3.40;;;45.10;1.00;;;;;;5052572;28;20038;-64
2022/07/20 08:06:31;;;;;;;5.22;3.47;;;45.60;1.00;;;;;;5070570;28;20025;-64
2022/07/20 08:08:57;;;;;;;5.05;3.40;;;45.60;1.00;;;;;;5050932;28;20108;-64
2022/07/20 08:11:23;;;;;;;4.93;3.30;;;45.70;1.00;;;;;;5070813;28;20021;-65
2022/07/20 08:13:49;;;;;;;3.40;2.90;;;45.70;1.00;;;;;;5049186;28;20017;-61
2022/07/20 08:16:14;;;;;;;5.35;3.28;;;46.00;1.00;;;;;;5050366;28;20029;-61
2022/07/20 08:18:40;;;;;;;5.88;3.70;;;45.80;1.00;;;;;;5069806;28;20040;-64
2022/07/20 08:21:05;;;;;;;3.53;2.90;;;45.40;1.00;;;;;;5049068;28;20110;-64
2022/07/20 08:23:31;;;;;;;6.65;3.20;;;45.20;1.00;;;;;;5069805;28;20040;-64
2022/07/20 08:25:56;;;;;;;4.45;3.00;;;44.90;1.00;;;;;;5049132;28;20029;-64
2022/07/20 08:28:22;;;;;;;3.40;3.10;;;44.70;1.00;;;;;;5069435;28;20024;-64
2022/07/20 08:30:50;;;;;;;2.95;2.60;;;44.90;1.00;;;;;;5049109;28;20510;-65
2022/07/20 08:33:16;;;;;;;4.15;2.88;;;44.80;1.00;;;;;;5069722;28;20024;-64
2022/07/20 08:35:43;;;;;;;3.05;2.80;;;44.30;1.00;;;;;;5048689;28;20039;-64
2022/07/20 08:38:09;;;;;;;5.47;3.45;;;43.10;1.00;;;;;;5069405;28;20032;-51
2022/07/20 08:40:35;;;;;;;4.50;3.47;;;42.00;1.00;;;;;;5048634;28;20035;-54
2022/07/20 08:43:01;;;;;;;3.53;3.05;;;41.50;1.00;;;;;;5069592;28;20081;-49
2022/07/20 08:45:28;;;;;;;4.95;3.40;;;41.00;1.00;;;;;;5048597;28;20096;-53
2022/07/20 08:47:57;;;;;;;7.13;3.20;;;40.50;1.00;;;;;;5060573;28;20398;-52
2022/07/20 08:50:24;;;;;;;5.38;3.33;;;40.30;1.00;;;;;;5055127;28;20415;-52
2022/07/20 08:52:50;;;;;;;3.35;2.83;;;40.20;1.00;;;;;;5069302;28;20550;-54
2022/07/20 08:55:16;;;;;;;3.90;2.70;;;40.70;1.00;;;;;;5048250;28;20028;-48
2022/07/20 08:57:42;;;;;;;5.15;2.65;;;40.90;1.00;;;;;;5068709;28;20510;-49
2022/07/20 09:00:08;;;;;;;5.53;2.78;;;41.20;1.00;;;;;;5058486;28;20025;-53
2022/07/20 09:02:53;;;;;;;4.70;3.05;;;41.00;1.00;;;;;;5050047;28;20116;-53
2022/07/20 09:05:20;;;;;;;;;;;40.10;1.00;;;;;;5056621;28;20400;-50
2022/07/20 09:07:48;;;;;;;4.60;2.53;;;39.80;1.00;;;;;;5068861;28;20497;-54
2022/07/20 09:10:20;;;;;;;4.60;2.58;;;39.90;1.00;;;;;;5058682;28;20035;-55
2022/07/20 09:12:57;;;;;;;3.97;2.60;;;40.50;1.00;;;;;;5029694;28;20155;-55
2022/07/20 09:15:31;;;;;;;3.95;2.70;;;40.50;1.00;;;;;;5034142;28;20110;-53
2022/07/20 09:18:20;;;;;;;2.80;2.03;;;39.90;1.00;;;;;;5029593;28;20021;-48
2022/07/20 09:20:54;;;;;;;4.18;2.38;;;39.80;1.00;;;;;;5039142;28;20056;-55
2022/07/20 09:23:22;;;;;;;3.22;2.53;;;40.10;1.00;;;;;;5029334;28;20025;-55
2022/07/20 09:26:05;;;;;;;5.75;2.65;;;40.40;1.00;;;;;;5051408;28;20025;-55
2022/07/20 09:28:35;;;;;;;4.47;2.53;;;40.70;1.00;;;;;;5029281;28;20026;-55
2022/07/20 09:31:01;;;;;;;2.88;2.40;;;40.80;1.00;;;;;;5049689;28;20280;-52
2022/07/20 09:33:29;;;;;;;3.05;2.65;;;40.50;1.00;;;;;;5068216;28;20186;-54
2022/07/20 09:35:56;;;;;;;5.97;2.63;;;40.60;1.00;;;;;;5047611;28;20029;-54
2022/07/20 09:38:32;;;;;;;3.10;2.22;;;40.80;1.00;;;;;;5068326;28;20032;-54
2022/07/20 09:40:58;;;;;;;2.83;2.50;;;41.00;1.00;;;;;;5043309;28;20047;-55
2022/07/20 09:43:32;;;;;;;4.82;2.67;;;40.80;1.00;;;;;;5068059;28;20501;-54
2022/07/20 09:46:15;;;;;;;3.88;2.90;;;40.50;1.00;;;;;;5042916;28;20044;-55
2022/07/20 09:48:47;;;;;;;6.53;2.67;;;40.60;1.00;;;;;;5027315;28;20067;-49
2022/07/20 09:51:17;;;;;;;2.97;2.08;;;40.70;1.00;;;;;;5044706;28;20503;-53
2022/07/20 09:53:42;;;;;;;2.55;2.13;;;40.70;1.00;;;;;;5068031;28;20488;-55
2022/07/20 09:56:09;;;;;;;2.40;2.20;;;40.80;1.00;;;;;;5046099;28;20098;-55
2022/07/20 09:58:35;;;;;;;2.97;2.67;;;40.80;1.00;;;;;;5067975;28;20047;-55
2022/07/20 10:01:00;;;;;;;4.10;2.40;;;40.70;1.00;;;;;;5047360;28;20028;-49
2022/07/20 10:03:27;;;;;;;4.60;2.55;;;40.20;1.00;;;;;;5067716;28;20059;-52
2022/07/20 10:05:53;;;;;;;4.07;2.50;;;40.30;1.00;;;;;;5045713;28;20369;-47
2022/07/20 10:08:19;;;;;;;3.05;2.40;;;40.30;1.00;;;;;;5067101;28;20026;-48
2022/07/20 10:10:44;;;;;;;2.55;2.30;;;40.40;1.00;;;;;;5047199;28;20049;-49
2022/07/20 10:13:10;;;;;;;20.52;3.90;;;40.40;1.00;;;;;;5062742;28;20484;-47
2022/07/20 10:15:58;;;;;;;6.50;2.97;;;40.40;1.00;;;;;;5058412;28;20059;-50
2022/07/20 10:18:25;;;;;;;4.40;2.65;;;40.00;1.00;;;;;;5048264;28;20033;-47
2022/07/20 10:20:50;;;;;;;5.80;3.20;;;39.20;1.00;;;;;;5051975;28;20039;-48
2022/07/20 10:23:15;;;;;;;4.28;2.00;;;39.00;1.00;;;;;;5067305;28;20046;-54
2022/07/20 10:25:46;;;;;;;4.20;2.70;;;38.90;1.00;;;;;;5046845;28;20096;-47
2022/07/20 10:28:25;;;;;;;3.60;2.60;;;38.80;1.00;;;;;;5067848;28;20025;-48
2022/07/20 10:30:53;;;;;;;5.43;2.55;;;38.80;1.00;;;;;;5046783;28;20668;-50
2022/07/20 10:33:20;;;;;;;3.80;2.50;;;38.50;1.00;;;;;;5067686;28;20031;-48
2022/07/20 10:35:48;;;;;;;6.22;3.00;;;38.10;1.00;;;;;;5046723;28;20452;-49
2022/07/20 10:38:21;;;;;;;2.95;2.20;;;37.50;1.00;;;;;;5067676;28;20032;-51
2022/07/20 10:44:22;;;;;;;3.40;2.85;;;36.70;1.00;;;;;;5028441;28;20103;-49
2022/07/20 10:46:49;;;;;;;3.05;2.40;;;36.70;1.00;;;;;;5028009;28;20052;-52
2022/07/20 10:49:15;;;;;;;8.73;3.03;;;36.70;1.00;;;;;;5067063;28;20040;-50
2022/07/20 10:51:41;;;;;;;3.03;2.25;;;36.70;1.00;;;;;;5028134;28;20112;-55
2022/07/20 10:54:31;;;;;;;3.28;2.20;;;36.90;1.00;;;;;;5066631;28;20112;-52
2022/07/20 10:57:02;;;;;;;4.35;2.53;;;37.00;1.00;;;;;;5067971;28;20025;-50
2022/07/20 10:59:28;;;;;;;3.65;2.67;;;37.00;1.00;;;;;;5047520;28;20400;-48
2022/07/20 11:01:54;;;;;;;5.63;2.65;;;36.80;1.00;;;;;;5068005;28;20108;-50
2022/07/20 11:04:21;;;;;;;5.80;3.00;;;36.60;1.00;;;;;;5046608;28;20040;-48
2022/07/20 11:06:47;;;;;;;3.40;2.80;;;36.20;1.00;;;;;;5068006;28;20017;-53
2022/07/20 11:09:12;;;;;;;5.43;2.95;;;36.20;1.00;;;;;;5048166;28;20111;-47
2022/07/20 11:11:39;;;;;;;5.40;3.00;;;36.20;1.00;;;;;;5046169;28;20049;-49
2022/07/20 11:14:07;;;;;;;3.75;2.53;;;36.10;1.00;;;;;;5052616;28;20358;-53
2022/07/20 11:16:34;;;;;;;4.63;3.20;;;36.00;1.00;;;;;;5047162;28;20441;-52
2022/07/20 11:19:02;;;;;;;5.10;2.53;;;35.90;1.00;;;;;;5067238;28;20511;-51
2022/07/20 11:21:43;;;;;;;5.82;3.03;;;36.00;1.00;;;;;;5049371;28;20049;-47
2022/07/20 11:24:28;;;;;;;5.63;3.03;;;35.90;1.00;;;;;;5071112;28;20020;-51
2022/07/20 11:26:55;;;;;;;6.43;2.90;;;35.70;1.00;;;;;;5071543;28;20535;-53
2022/07/20 11:29:25;;;;;;;4.47;3.42;;;35.70;1.00;;;;;;5051630;28;20475;-50
2022/07/20 11:31:51;;;;;;;7.10;3.50;;;35.70;1.00;;;;;;5051406;28;20044;-48
2022/07/20 11:34:16;;;;;;;4.00;2.80;;;35.70;1.00;;;;;;5070634;28;20025;-51
2022/07/20 11:36:42;;;;;;;3.47;3.00;;;35.70;1.00;;;;;;5049858;28;20481;-55
2022/07/20 11:39:10;;;;;;;4.47;3.40;;;35.60;1.00;;;;;;5070327;28;20169;-51
2022/07/20 11:41:38;;;;;;;3.85;2.90;;;35.60;1.00;;;;;;5049468;28;20033;-54
2022/07/20 11:44:07;;;;;;;12.02;3.08;;;35.60;1.00;;;;;;5070616;28;20082;-53
2022/07/20 11:46:40;;;;;;;3.65;2.67;;;35.60;1.00;;;;;;5049584;28;20228;-55
2022/07/20 11:49:08;;;;;;;4.05;2.78;;;35.60;1.00;;;;;;5031034;28;20056;-52
2022/07/20 11:51:35;;;;;;;4.75;3.05;;;35.70;1.00;;;;;;5050953;28;20033;-53
2022/07/20 11:54:02;;;;;;;4.50;2.80;;;35.70;1.00;;;;;;5070369;28;20028;-53
2022/07/20 11:56:29;;;;;;;5.18;3.47;;;35.80;1.00;;;;;;5049639;28;20043;-53
2022/07/20 11:58:56;;;;;;;5.30;3.55;;;35.70;1.00;;;;;;5070395;28;20036;-48
2022/07/20 12:01:28;;;;;;;4.57;4.05;;;35.70;1.00;;;;;;5049387;28;20346;-48
2022/07/20 12:04:01;;;;;;;6.82;4.40;;;35.70;1.00;;;;;;5030823;28;20298;-50
2022/07/20 12:06:30;;;;;;;8.77;3.90;;;35.70;1.00;;;;;;5044911;28;20035;-52
2022/07/20 12:09:16;;;;;;;5.30;3.03;;;35.70;1.00;;;;;;5070186;28;20343;-53
2022/07/20 12:11:59;;;;;;;7.20;2.50;;;35.70;1.00;;;;;;5049122;28;20056;-53
2022/07/20 12:14:34;;;;;;;6.72;2.80;;;35.80;1.00;;;;;;5064200;28;20090;-49
2022/07/20 12:17:23;;;;;;;5.43;2.90;;;35.80;1.00;;;;;;5070626;28;20029;-52
2022/07/20 12:19:51;;;;;;;2.83;2.17;;;35.80;1.00;;;;;;5032771;28;20745;-50
2022/07/20 12:22:19;;;;;;;6.90;3.47;;;35.80;1.00;;;;;;5069002;28;20389;-56
2022/07/20 12:24:54;;;;;;;4.72;2.63;;;35.80;1.00;;;;;;5049995;28;20440;-50
2022/07/20 12:27:21;;;;;;;7.20;2.58;;;35.90;1.00;;;;;;5070216;28;20029;-52
2022/07/20 12:29:47;;;;;;;39.78;3.40;;;35.90;1.00;;;;;;5050182;28;20131;-49
2022/07/20 12:32:16;;;;;;;3.90;2.25;;;35.90;1.00;;;;;;5069746;28;20436;-51
2022/07/20 12:34:55;;;;;;;4.82;3.50;;;35.90;1.00;;;;;;5049042;28;20029;-51
2022/07/20 12:37:21;;;;;;;5.03;2.65;;;35.90;1.00;;;;;;5070030;28;20052;-52
2022/07/20 12:39:53;;;;;;;3.95;2.55;;;35.90;1.00;;;;;;5049792;28;20044;-55
2022/07/20 12:42:23;;;;;;;10.35;4.00;;;36.00;1.00;;;;;;5070104;28;20070;-48
2022/07/20 12:45:00;;;;;;;4.38;2.50;;;36.00;1.00;;;;;;5048029;28;20048;-48
2022/07/20 12:47:26;;;;;;;5.60;2.80;;;36.00;1.00;;;;;;5065015;28;20076;-51
2022/07/20 12:49:52;;;;;;;7.40;3.20;;;35.90;1.00;;;;;;5049651;28;20017;-54
2022/07/20 12:52:18;;;;;;;4.72;3.20;;;35.90;1.00;;;;;;5068499;28;20074;-52
2022/07/20 12:54:44;;;;;;;8.63;3.25;;;35.80;1.00;;;;;;5048594;28;20033;-50
2022/07/20 12:57:09;;;;;;;6.85;3.03;;;35.80;1.00;;;;;;5069693;28;20040;-51
2022/07/20 12:59:35;;;;;;;3.67;3.08;;;35.80;1.00;;;;;;5050227;28;20127;-49